Lord Nelson — GHJV — position and weather

sailwx.info

Track history (hours):
 
Tides and Currents Weather Stations Pressure Air Temp Water Temp Dewpoint Dewpoint Depression Visibility Wind Speed Wind Dir Waves Ship Positions

Lord Nelson (United Kingdom)

Ship's website: http://www.jst.org.uk/

Last reported at 2015-Aug-01 07:33 UTC. Time now 2015-Aug-01 07:50 UTC.
Position N 56°59' E 010°12'.

Length 54.7 m; beam 9 m; draft 4.1 m.

Type: Sailing vessel. MMSI: 232003690.

Date/timePositionNaut miles runAvg speedWind from/ knotsBaromVisibWave heightAir tempDewpointWater temp
2015-Aug-01 07:33N 56°59' E 010°12'3 1.6
2015-Aug-01 05:23N 56°59' E 010°19'0 0.0
2015-Aug-01 04:32N 56°59' E 010°19'0 0.0
2015-Aug-01 03:29N 56°59' E 010°19'0 0.0
2015-Aug-01 02:26N 56°59' E 010°19'0 0.0
2015-Aug-01 00:20N 56°59' E 010°19'0 0.0
2015-Jul-31 23:32N 56°59' E 010°19'0 0.0
2015-Jul-31 22:32N 56°59' E 010°19'0 0.0
2015-Jul-31 21:29N 56°59' E 010°19'0 0.0
2015-Jul-31 20:32N 56°59' E 010°19'0 0.0
2015-Jul-31 19:32N 56°59' E 010°19'0 0.0
2015-Jul-31 18:31N 56°59' E 010°19'0 0.0
2015-Jul-31 17:25N 56°59' E 010°19'0 0.0
2015-Jul-31 16:25N 56°59' E 010°19'40 2.5
2015-Jul-31 00:30N 57°37' E 010°43'5 5.7
2015-Jul-30 23:33N 57°43' E 010°45'4 4.2
2015-Jul-30 22:34N 57°47' E 010°43'5 5.2
2015-Jul-30 21:33N 57°47' E 010°33'7 6.6
2015-Jul-30 20:33N 57°48' E 010°21'6 5.6
2015-Jul-30 19:33N 57°48' E 010°10'5 4.9
2015-Jul-30 18:33N 57°48' E 010°01'5 5.0
2015-Jul-30 17:33N 57°48' E 009°52'5 4.6
2015-Jul-30 16:33N 57°48' E 009°43'4 4.4
2015-Jul-30 15:33N 57°48' E 009°35'4 3.7
2015-Jul-30 14:33N 57°46' E 009°29'5 4.5
2015-Jul-30 13:24N 57°42' E 009°24'3 2.8
2015-Jul-30 12:17N 57°40' E 009°19'2 3.2
2015-Jul-30 11:33N 57°38' E 009°16'14 3.5
2015-Jul-30 07:32N 57°30' E 008°55'3 2.9
2015-Jul-30 06:32N 57°30' E 008°50'  
2015-Jul-23 11:23N 58°04' E 006°26'3 3.5
2015-Jul-23 10:34N 58°05' E 006°21'4 3.6
2015-Jul-23 09:34N 58°07' E 006°15'4 3.6
2015-Jul-23 08:33N 58°10' E 006°10'3 3.4
2015-Jul-23 07:34N 58°12' E 006°06'3 2.7
2015-Jul-23 06:33N 58°14' E 006°03'3 2.8
2015-Jul-23 05:33N 58°16' E 005°59'3 3.0
2015-Jul-23 04:33N 58°18' E 005°54'3 3.2
2015-Jul-23 03:33N 58°20' E 005°49'6 6.4
2015-Jul-23 02:33N 58°25' E 005°41'7 7.2
2015-Jul-23 01:32N 58°31' E 005°33'7 7.4
2015-Jul-23 00:32N 58°37' E 005°26'7 7.3
2015-Jul-22 23:33N 58°44' E 005°20'7 7.3
2015-Jul-22 22:33N 58°51' E 005°16'7 6.9
2015-Jul-22 21:33N 58°57' E 005°10'6 6.5
2015-Jul-22 20:33N 59°03' E 005°05'7 6.6
2015-Jul-22 19:33N 59°09' E 005°02'7 7.0
2015-Jul-22 18:33N 59°16' E 004°57'8 7.7
2015-Jul-22 17:33N 59°24' E 004°57'6 5.3
2015-Jul-22 16:24N 59°28' E 005°05'5 5.7
2015-Jul-22 15:32N 59°31' E 005°12'7 6.7
2015-Jul-22 14:32N 59°38' E 005°17'7 6.6
2015-Jul-22 13:33N 59°42' E 005°26'6 6.0
2015-Jul-22 12:33N 59°46' E 005°35'2 1.9
2015-Jul-22 11:32N 59°46' E 005°39'2 2.5
2015-Jul-22 10:33N 59°47' E 005°34'7 6.5
2015-Jul-22 09:33N 59°52' E 005°41'6 6.0
2015-Jul-22 08:33N 59°56' E 005°50'  
Track history (hours):
 
Tides and Currents Weather Stations Pressure Air Temp Water Temp Dewpoint Dewpoint Depression Visibility Wind Speed Wind Dir Waves Ship Positions

Lord Nelson (United Kingdom)

Ship's website: http://www.jst.org.uk/

Last reported at 2015-Aug-01 07:33 UTC. Time now 2015-Aug-01 07:50 UTC.
Position N 56°59' E 010°12'.

Length 54.7 m; beam 9 m; draft 4.1 m.

Type: Sailing vessel. MMSI: 232003690.

Date/timePositionNaut miles runAvg speedWind from/ knotsBaromVisibWave heightAir tempDewpointWater temp
2015-Aug-01 07:33N 56°59' E 010°12'3 1.6
2015-Aug-01 05:23N 56°59' E 010°19'0 0.0
2015-Aug-01 04:32N 56°59' E 010°19'0 0.0
2015-Aug-01 03:29N 56°59' E 010°19'0 0.0
2015-Aug-01 02:26N 56°59' E 010°19'0 0.0
2015-Aug-01 00:20N 56°59' E 010°19'0 0.0
2015-Jul-31 23:32N 56°59' E 010°19'0 0.0
2015-Jul-31 22:32N 56°59' E 010°19'0 0.0
2015-Jul-31 21:29N 56°59' E 010°19'0 0.0
2015-Jul-31 20:32N 56°59' E 010°19'0 0.0
2015-Jul-31 19:32N 56°59' E 010°19'0 0.0
2015-Jul-31 18:31N 56°59' E 010°19'0 0.0
2015-Jul-31 17:25N 56°59' E 010°19'0 0.0
2015-Jul-31 16:25N 56°59' E 010°19'40 2.5
2015-Jul-31 00:30N 57°37' E 010°43'5 5.7
2015-Jul-30 23:33N 57°43' E 010°45'4 4.2
2015-Jul-30 22:34N 57°47' E 010°43'5 5.2
2015-Jul-30 21:33N 57°47' E 010°33'7 6.6
2015-Jul-30 20:33N 57°48' E 010°21'6 5.6
2015-Jul-30 19:33N 57°48' E 010°10'5 4.9
2015-Jul-30 18:33N 57°48' E 010°01'5 5.0
2015-Jul-30 17:33N 57°48' E 009°52'5 4.6
2015-Jul-30 16:33N 57°48' E 009°43'4 4.4
2015-Jul-30 15:33N 57°48' E 009°35'4 3.7
2015-Jul-30 14:33N 57°46' E 009°29'5 4.5
2015-Jul-30 13:24N 57°42' E 009°24'3 2.8
2015-Jul-30 12:17N 57°40' E 009°19'2 3.2
2015-Jul-30 11:33N 57°38' E 009°16'14 3.5
2015-Jul-30 07:32N 57°30' E 008°55'3 2.9
2015-Jul-30 06:32N 57°30' E 008°50'  
2015-Jul-23 11:23N 58°04' E 006°26'3 3.5
2015-Jul-23 10:34N 58°05' E 006°21'4 3.6
2015-Jul-23 09:34N 58°07' E 006°15'4 3.6
2015-Jul-23 08:33N 58°10' E 006°10'3 3.4
2015-Jul-23 07:34N 58°12' E 006°06'3 2.7
2015-Jul-23 06:33N 58°14' E 006°03'3 2.8
2015-Jul-23 05:33N 58°16' E 005°59'3 3.0
2015-Jul-23 04:33N 58°18' E 005°54'3 3.2
2015-Jul-23 03:33N 58°20' E 005°49'6 6.4
2015-Jul-23 02:33N 58°25' E 005°41'7 7.2
2015-Jul-23 01:32N 58°31' E 005°33'7 7.4
2015-Jul-23 00:32N 58°37' E 005°26'7 7.3
2015-Jul-22 23:33N 58°44' E 005°20'7 7.3
2015-Jul-22 22:33N 58°51' E 005°16'7 6.9
2015-Jul-22 21:33N 58°57' E 005°10'6 6.5
2015-Jul-22 20:33N 59°03' E 005°05'7 6.6
2015-Jul-22 19:33N 59°09' E 005°02'7 7.0
2015-Jul-22 18:33N 59°16' E 004°57'8 7.7
2015-Jul-22 17:33N 59°24' E 004°57'6 5.3
2015-Jul-22 16:24N 59°28' E 005°05'5 5.7
2015-Jul-22 15:32N 59°31' E 005°12'7 6.7
2015-Jul-22 14:32N 59°38' E 005°17'7 6.6
2015-Jul-22 13:33N 59°42' E 005°26'6 6.0
2015-Jul-22 12:33N 59°46' E 005°35'2 1.9
2015-Jul-22 11:32N 59°46' E 005°39'2 2.5
2015-Jul-22 10:33N 59°47' E 005°34'7 6.5
2015-Jul-22 09:33N 59°52' E 005°41'6 6.0
2015-Jul-22 08:33N 59°56' E 005°50'  

Dump ship's entire track history